Time;durP1;ratioP1;P1;durP2;ratioP2;P2;SDS_P1;SDS_P2;PMS_P1;PMS_P2;Temp;Humidity;BMP_temperature;BMP_pressure;BME280_temperature;BME280_humidity;BME280_pressure;Samples;Min_cycle;Max_cycle;Signal;HPM_P1;HPM_P2
2022/11/12 00:00:58;;;;;;;11.48;5.10;;;;;;;;;;5103262;27;20946;-74
2022/11/12 00:03:25;;;;;;;10.23;5.88;;;;;;;;;;5110696;27;20082;-73
2022/11/12 00:05:52;;;;;;;10.30;5.65;;;;;;;;;;5113808;27;20055;-73
2022/11/12 00:08:20;;;;;;;9.75;5.13;;;;;;;;;;5114737;27;20059;-73
2022/11/12 00:10:48;;;;;;;7.55;4.90;;;;;;;;;;5110496;27;20051;-73
2022/11/12 00:13:16;;;;;;;8.38;5.20;;;;;;;;;;5108640;27;20044;-73
2022/11/12 00:15:43;;;;;;;9.75;5.38;;;;;;;;;;5110992;27;20044;-73
2022/11/12 00:18:10;;;;;;;8.70;5.78;;;;;;;;;;5101686;27;20062;-74
2022/11/12 00:20:38;;;;;;;8.32;5.38;;;;;;;;;;5132430;27;20146;-74
2022/11/12 00:23:15;;;;;;;8.40;5.30;;;;;;;;;;5131216;27;20062;-74
2022/11/12 00:25:42;;;;;;;9.90;6.03;;;;;;;;;;5142198;27;20054;-74
2022/11/12 00:28:10;;;;;;;8.50;5.78;;;;;;;;;;5136212;27;20886;-74
2022/11/12 00:30:38;;;;;;;11.95;5.88;;;;;;;;;;5112491;27;20098;-74
2022/11/12 00:33:05;;;;;;;8.18;5.38;;;;;;;;;;5137691;27;20090;-74
2022/11/12 00:35:32;;;;;;;8.95;5.80;;;;;;;;;;5128178;27;20520;-74
2022/11/12 00:38:00;;;;;;;7.80;4.43;;;;;;;;;;5135449;27;20121;-74
2022/11/12 00:40:28;;;;;;;7.50;4.72;;;;;;;;;;5142227;27;20100;-74
2022/11/12 00:42:55;;;;;;;9.13;4.90;;;;;;;;;;5139150;27;20514;-74
2022/11/12 00:45:22;;;;;;;9.57;5.03;;;;;;;;;;5117633;27;22791;-74
2022/11/12 00:47:49;;;;;;;9.07;4.47;;;;;;;;;;5143632;27;20048;-74
2022/11/12 00:50:19;;;;;;;7.97;4.68;;;;;;;;;;5117862;27;20138;-74
2022/11/12 00:52:46;;;;;;;7.57;4.50;;;;;;;;;;5129986;27;20094;-74
2022/11/12 00:55:13;;;;;;;11.00;5.15;;;;;;;;;;5142826;27;20067;-74
2022/11/12 00:57:41;;;;;;;8.77;4.60;;;;;;;;;;5128412;27;20080;-74
2022/11/12 01:00:08;;;;;;;8.45;4.68;;;;;;;;;;5125903;27;20051;-74
2022/11/12 01:02:35;;;;;;;10.32;4.97;;;;;;;;;;5141829;27;20104;-74
2022/11/12 01:05:11;;;;;;;13.65;5.40;;;;;;;;;;5138998;27;20315;-74
2022/11/12 01:07:38;;;;;;;11.50;6.40;;;;;;;;;;5130453;27;20134;-74
2022/11/12 01:10:06;;;;;;;16.50;6.50;;;;;;;;;;5134697;27;20062;-74
2022/11/12 01:12:33;;;;;;;23.25;8.52;;;;;;;;;;5144099;27;20043;-74
2022/11/12 01:15:00;;;;;;;15.48;8.25;;;;;;;;;;5138371;27;20130;-74
2022/11/12 01:17:28;;;;;;;20.40;8.73;;;;;;;;;;5141422;27;20504;-74
2022/11/12 01:19:55;;;;;;;14.40;7.68;;;;;;;;;;5139507;27;20064;-74
2022/11/12 01:22:22;;;;;;;18.42;7.75;;;;;;;;;;5140362;27;20047;-74
2022/11/12 01:24:50;;;;;;;11.95;6.20;;;;;;;;;;5135378;27;20055;-74
2022/11/12 01:27:17;;;;;;;21.08;6.43;;;;;;;;;;5114257;27;20076;-74
2022/11/12 01:29:45;;;;;;;14.25;7.30;;;;;;;;;;5139364;27;20571;-74
2022/11/12 01:32:12;;;;;;;12.70;6.22;;;;;;;;;;5131713;27;20048;-74
2022/11/12 01:34:39;;;;;;;15.63;7.97;;;;;;;;;;5115517;27;20078;-74
2022/11/12 01:37:07;;;;;;;23.60;8.80;;;;;;;;;;5138329;27;20488;-74
2022/11/12 01:39:34;;;;;;;55.00;11.90;;;;;;;;;;5121662;27;20048;-74
2022/11/12 01:42:01;;;;;;;45.00;12.07;;;;;;;;;;5122180;27;20058;-74
2022/11/12 01:44:30;;;;;;;31.23;10.18;;;;;;;;;;5136731;27;20058;-74
2022/11/12 01:46:57;;;;;;;19.58;9.32;;;;;;;;;;5135400;27;20055;-74
2022/11/12 01:49:28;;;;;;;24.70;11.02;;;;;;;;;;5118456;27;20051;-74
2022/11/12 01:51:57;;;;;;;28.17;10.68;;;;;;;;;;5143107;27;20047;-74
2022/11/12 01:54:25;;;;;;;24.50;8.98;;;;;;;;;;5133074;27;20051;-74
2022/11/12 01:56:52;;;;;;;26.45;9.52;;;;;;;;;;5136816;27;20055;-74
2022/11/12 01:59:22;;;;;;;26.33;9.75;;;;;;;;;;5135506;27;20054;-74
2022/11/12 02:01:49;;;;;;;24.40;9.88;;;;;;;;;;5133243;27;20562;-74
2022/11/12 02:04:19;;;;;;;17.33;7.68;;;;;;;;;;5131830;27;20054;-74
2022/11/12 02:06:47;;;;;;;15.15;6.72;;;;;;;;;;5127904;27;20104;-74
2022/11/12 02:09:16;;;;;;;11.45;6.68;;;;;;;;;;5142281;27;20159;-74
2022/11/12 02:11:43;;;;;;;11.68;6.53;;;;;;;;;;5124879;27;20048;-74
2022/11/12 02:14:10;;;;;;;13.98;6.13;;;;;;;;;;5137656;27;20055;-74
2022/11/12 02:16:41;;;;;;;11.70;6.43;;;;;;;;;;5140305;27;20054;-73
2022/11/12 02:19:11;;;;;;;12.27;6.32;;;;;;;;;;5130657;27;20063;-74
2022/11/12 02:21:38;;;;;;;9.73;6.20;;;;;;;;;;5134835;27;20503;-74
2022/11/12 02:24:26;;;;;;;12.32;6.43;;;;;;;;;;5120466;27;20561;-74
2022/11/12 02:26:55;;;;;;;11.85;6.10;;;;;;;;;;5124839;27;20169;-74
2022/11/12 02:29:22;;;;;;;15.05;6.75;;;;;;;;;;5138159;27;20047;-74
2022/11/12 02:31:52;;;;;;;12.52;6.22;;;;;;;;;;5134770;27;20047;-73
2022/11/12 02:34:20;;;;;;;17.30;6.50;;;;;;;;;;5130481;27;20059;-74
2022/11/12 02:36:47;;;;;;;11.45;6.32;;;;;;;;;;5119221;27;20496;-74
2022/11/12 02:39:16;;;;;;;10.45;6.68;;;;;;;;;;5135252;27;20091;-74
2022/11/12 02:41:43;;;;;;;14.20;6.78;;;;;;;;;;5131299;27;20058;-74
2022/11/12 02:44:10;;;;;;;13.40;6.45;;;;;;;;;;5142164;27;20490;-74
2022/11/12 02:46:37;;;;;;;12.15;6.90;;;;;;;;;;5140839;27;20542;-74
2022/11/12 02:49:05;;;;;;;11.07;6.15;;;;;;;;;;5141853;27;20055;-74
2022/11/12 02:51:32;;;;;;;11.98;5.55;;;;;;;;;;5134067;27;20083;-74
2022/11/12 02:53:59;;;;;;;15.65;6.55;;;;;;;;;;5133716;27;20051;-74
2022/11/12 02:56:26;;;;;;;11.82;6.68;;;;;;;;;;5133759;27;20044;-74
2022/11/12 02:58:53;;;;;;;10.00;6.32;;;;;;;;;;5138819;27;20051;-74
2022/11/12 03:01:20;;;;;;;20.52;7.72;;;;;;;;;;5123229;27;20046;-74
2022/11/12 03:03:50;;;;;;;30.17;7.10;;;;;;;;;;5136359;27;20847;-74
2022/11/12 03:06:17;;;;;;;13.00;6.53;;;;;;;;;;5138385;27;20086;-74
2022/11/12 03:08:45;;;;;;;16.17;8.18;;;;;;;;;;5129911;27;20051;-74
2022/11/12 03:11:14;;;;;;;16.33;7.45;;;;;;;;;;5131546;27;20073;-74
2022/11/12 03:13:41;;;;;;;14.95;8.18;;;;;;;;;;5136970;27;20043;-74
2022/11/12 03:16:09;;;;;;;20.50;7.72;;;;;;;;;;5137461;27;20051;-74
2022/11/12 03:18:36;;;;;;;16.02;6.88;;;;;;;;;;5135344;27;20056;-74
2022/11/12 03:21:04;;;;;;;17.45;7.47;;;;;;;;;;5123680;27;20813;-74
2022/11/12 03:23:32;;;;;;;19.60;8.40;;;;;;;;;;5134207;27;20101;-74
2022/11/12 03:26:01;;;;;;;17.77;8.10;;;;;;;;;;5143019;27;20078;-74
2022/11/12 03:28:29;;;;;;;16.15;8.27;;;;;;;;;;5138213;27;20062;-75
2022/11/12 03:30:57;;;;;;;25.77;8.75;;;;;;;;;;5117627;27;20488;-74
2022/11/12 03:33:25;;;;;;;16.10;8.00;;;;;;;;;;5129223;27;20134;-74
2022/11/12 03:35:52;;;;;;;17.75;8.55;;;;;;;;;;5132293;27;20044;-74
2022/11/12 03:38:19;;;;;;;18.45;8.90;;;;;;;;;;5131830;27;20062;-74
2022/11/12 03:40:47;;;;;;;16.40;9.02;;;;;;;;;;5119721;27;20057;-74
2022/11/12 03:43:14;;;;;;;27.63;10.07;;;;;;;;;;5134955;27;20074;-74
2022/11/12 03:45:41;;;;;;;22.17;9.50;;;;;;;;;;5133251;27;20048;-74
2022/11/12 03:48:09;;;;;;;16.17;8.13;;;;;;;;;;5137722;27;20074;-74
2022/11/12 03:50:36;;;;;;;22.08;8.93;;;;;;;;;;5143354;27;20051;-74
2022/11/12 03:53:03;;;;;;;16.05;8.70;;;;;;;;;;5132386;27;20742;-74
2022/11/12 03:55:31;;;;;;;17.70;9.85;;;;;;;;;;5130448;27;20047;-74
2022/11/12 03:57:58;;;;;;;18.63;9.65;;;;;;;;;;5120260;27;20051;-74
2022/11/12 04:00:26;;;;;;;19.25;9.82;;;;;;;;;;5137421;27;20431;-74
2022/11/12 04:02:54;;;;;;;17.92;8.85;;;;;;;;;;5137998;27;20055;-74
2022/11/12 04:11:00;;;;;;;24.35;9.35;;;;;;;;;;5132790;27;20055;-74
2022/11/12 04:13:28;;;;;;;17.95;9.98;;;;;;;;;;5140379;27;20039;-74
2022/11/12 04:21:51;;;;;;;15.32;9.18;;;;;;;;;;5133699;27;20043;-74
2022/11/12 04:27:07;;;;;;;18.33;9.40;;;;;;;;;;5139258;27;20056;-74
2022/11/12 04:32:21;;;;;;;17.40;9.48;;;;;;;;;;5137185;27;20136;-74
2022/11/12 04:34:48;;;;;;;18.25;9.77;;;;;;;;;;5144267;27;20519;-74
2022/11/12 04:37:18;;;;;;;18.33;8.93;;;;;;;;;;5132119;27;20047;-74
2022/11/12 04:39:52;;;;;;;16.35;9.57;;;;;;;;;;5133968;27;20047;-73
2022/11/12 04:45:07;;;;;;;17.38;9.73;;;;;;;;;;5139428;27;20059;-74
2022/11/12 04:47:35;;;;;;;19.05;9.63;;;;;;;;;;5147119;27;20047;-74
2022/11/12 04:50:05;;;;;;;19.10;9.30;;;;;;;;;;5139792;27;20044;-74
2022/11/12 04:52:32;;;;;;;21.70;10.13;;;;;;;;;;5134770;27;20055;-74
2022/11/12 04:54:59;;;;;;;18.90;9.63;;;;;;;;;;5138704;27;20054;-74
2022/11/12 04:57:27;;;;;;;19.20;9.82;;;;;;;;;;5137798;27;20051;-74
2022/11/12 04:59:54;;;;;;;17.63;9.38;;;;;;;;;;5137487;27;20063;-74
2022/11/12 05:02:22;;;;;;;21.10;9.35;;;;;;;;;;5125689;27;20081;-74
2022/11/12 05:04:49;;;;;;;19.27;9.77;;;;;;;;;;5138438;27;20051;-74
2022/11/12 05:07:19;;;;;;;17.38;9.88;;;;;;;;;;5121676;27;20051;-74
2022/11/12 05:09:46;;;;;;;20.80;10.40;;;;;;;;;;5133746;27;20055;-74
2022/11/12 05:12:13;;;;;;;17.77;10.38;;;;;;;;;;5135568;27;20055;-74
2022/11/12 05:14:40;;;;;;;19.38;10.55;;;;;;;;;;5131203;27;20083;-74
2022/11/12 05:17:08;;;;;;;20.30;11.50;;;;;;;;;;5136281;27;20913;-74
2022/11/12 05:19:35;;;;;;;22.73;11.32;;;;;;;;;;5137730;27;20066;-74
2022/11/12 05:22:05;;;;;;;20.98;11.20;;;;;;;;;;5112830;27;20052;-74
2022/11/12 05:24:35;;;;;;;30.80;12.20;;;;;;;;;;5137762;27;20059;-74
2022/11/12 05:27:12;;;;;;;21.90;11.48;;;;;;;;;;5136518;27;20051;-74
2022/11/12 05:29:40;;;;;;;24.10;11.60;;;;;;;;;;5138137;27;20093;-74
2022/11/12 05:32:08;;;;;;;18.10;9.48;;;;;;;;;;5138452;27;20079;-74
2022/11/12 05:34:35;;;;;;;18.17;9.80;;;;;;;;;;5133843;27;20044;-74
2022/11/12 05:37:03;;;;;;;17.08;8.75;;;;;;;;;;5133732;27;20039;-74
2022/11/12 05:39:31;;;;;;;15.20;8.18;;;;;;;;;;5139922;27;20052;-74
2022/11/12 05:41:59;;;;;;;16.00;8.80;;;;;;;;;;5134786;27;20128;-74
2022/11/12 05:44:42;;;;;;;24.20;10.18;;;;;;;;;;5136544;27;20059;-74
2022/11/12 05:47:09;;;;;;;22.33;9.45;;;;;;;;;;5128162;27;20062;-73
2022/11/12 05:49:36;;;;;;;20.40;9.45;;;;;;;;;;5142166;27;20048;-75
2022/11/12 05:52:05;;;;;;;18.58;10.25;;;;;;;;;;5130183;27;20048;-74
2022/11/12 05:54:32;;;;;;;18.50;9.65;;;;;;;;;;5133439;27;20051;-75
2022/11/12 05:57:00;;;;;;;17.55;9.40;;;;;;;;;;5112751;27;20055;-74
2022/11/12 05:59:27;;;;;;;19.98;10.90;;;;;;;;;;5120642;27;20135;-74
2022/11/12 06:01:55;;;;;;;16.75;10.18;;;;;;;;;;5140849;27;20100;-74
2022/11/12 06:04:22;;;;;;;20.40;10.40;;;;;;;;;;5144385;27;20047;-74
2022/11/12 06:06:53;;;;;;;19.13;10.48;;;;;;;;;;5127494;27;20130;-75
2022/11/12 06:09:20;;;;;;;19.77;10.48;;;;;;;;;;5142136;27;20061;-74
2022/11/12 06:11:50;;;;;;;20.05;10.63;;;;;;;;;;5137287;27;20496;-74
2022/11/12 06:14:18;;;;;;;20.55;10.07;;;;;;;;;;5131086;27;20054;-74
2022/11/12 06:16:47;;;;;;;19.95;10.57;;;;;;;;;;5136147;27;20055;-74
2022/11/12 06:19:14;;;;;;;24.50;12.20;;;;;;;;;;5136271;27;20067;-74
2022/11/12 06:21:42;;;;;;;26.70;11.48;;;;;;;;;;5134942;27;20048;-74
2022/11/12 06:24:10;;;;;;;46.88;13.75;;;;;;;;;;5135759;27;20092;-74
2022/11/12 06:26:37;;;;;;;36.65;13.00;;;;;;;;;;5139910;27;20051;-74
2022/11/12 06:29:04;;;;;;;27.05;11.40;;;;;;;;;;5135951;27;20048;-74
2022/11/12 06:31:31;;;;;;;31.35;10.35;;;;;;;;;;5136594;27;20105;-74
2022/11/12 06:33:58;;;;;;;37.55;12.45;;;;;;;;;;5130726;27;20047;-74
2022/11/12 06:36:26;;;;;;;20.92;10.65;;;;;;;;;;5136724;27;20154;-74
2022/11/12 06:38:53;;;;;;;27.38;11.23;;;;;;;;;;5147010;27;20054;-74
2022/11/12 06:41:20;;;;;;;22.55;11.30;;;;;;;;;;5133662;27;20055;-74
2022/11/12 06:43:47;;;;;;;24.92;11.70;;;;;;;;;;5135517;27;20055;-74
2022/11/12 06:46:16;;;;;;;18.90;9.63;;;;;;;;;;5137027;27;20049;-74
2022/11/12 06:48:43;;;;;;;65.97;12.68;;;;;;;;;;5130884;27;20496;-74
2022/11/12 06:51:18;;;;;;;20.98;11.38;;;;;;;;;;5113575;27;20082;-74
2022/11/12 06:53:45;;;;;;;21.15;10.80;;;;;;;;;;5130973;27;20634;-75
2022/11/12 06:56:13;;;;;;;19.70;12.05;;;;;;;;;;5137758;27;20048;-75
2022/11/12 06:58:40;;;;;;;21.55;10.63;;;;;;;;;;5136406;27;20050;-74
2022/11/12 07:01:08;;;;;;;21.58;11.48;;;;;;;;;;5140360;27;20052;-74
2022/11/12 07:03:38;;;;;;;21.30;11.13;;;;;;;;;;5134675;27;20084;-74
2022/11/12 07:06:07;;;;;;;23.70;12.40;;;;;;;;;;5130102;27;20054;-74
2022/11/12 07:08:37;;;;;;;22.88;11.88;;;;;;;;;;5120979;27;20055;-75
2022/11/12 07:11:05;;;;;;;21.10;11.90;;;;;;;;;;5137607;27;20106;-74
2022/11/12 07:13:35;;;;;;;19.67;10.88;;;;;;;;;;5126983;27;20065;-74
2022/11/12 07:16:06;;;;;;;22.98;11.85;;;;;;;;;;5131734;27;20059;-74
2022/11/12 07:18:34;;;;;;;20.75;11.60;;;;;;;;;;5136659;27;20059;-74
2022/11/12 07:21:03;;;;;;;22.10;10.68;;;;;;;;;;5116697;27;20128;-74
2022/11/12 07:23:31;;;;;;;18.05;9.80;;;;;;;;;;5115873;27;20055;-74
2022/11/12 07:26:02;;;;;;;20.90;11.50;;;;;;;;;;5141087;27;20051;-74
2022/11/12 07:28:31;;;;;;;23.15;11.73;;;;;;;;;;5124260;27;20043;-75
2022/11/12 07:30:59;;;;;;;23.52;10.60;;;;;;;;;;5133975;27;20135;-74
2022/11/12 07:33:30;;;;;;;16.70;9.93;;;;;;;;;;5120343;27;20055;-74
2022/11/12 07:35:58;;;;;;;21.75;10.93;;;;;;;;;;5138921;27;20423;-74
2022/11/12 07:38:33;;;;;;;20.77;11.00;;;;;;;;;;5124797;27;20138;-75
2022/11/12 07:41:04;;;;;;;20.10;11.20;;;;;;;;;;5138834;27;20047;-74
2022/11/12 07:43:41;;;;;;;16.27;9.75;;;;;;;;;;5134378;27;20136;-75
2022/11/12 07:46:12;;;;;;;19.80;11.55;;;;;;;;;;5139015;27;20058;-74
2022/11/12 07:48:40;;;;;;;23.50;11.15;;;;;;;;;;5127645;27;20766;-74
2022/11/12 07:51:15;;;;;;;24.85;10.95;;;;;;;;;;5126413;27;20051;-75
2022/11/12 07:53:45;;;;;;;21.75;11.52;;;;;;;;;;5139515;27;20138;-74
2022/11/12 07:56:14;;;;;;;21.38;11.73;;;;;;;;;;5118196;27;20062;-74
2022/11/12 07:58:42;;;;;;;19.70;11.75;;;;;;;;;;5115315;27;20050;-74
2022/11/12 08:01:34;;;;;;;26.58;11.43;;;;;;;;;;5136279;27;20054;-74
2022/11/12 08:04:06;;;;;;;20.25;10.98;;;;;;;;;;5123213;27;20052;-75
2022/11/12 08:06:34;;;;;;;18.35;11.02;;;;;;;;;;5136843;27;20079;-74
2022/11/12 08:09:09;;;;;;;22.95;12.10;;;;;;;;;;5121757;27;20203;-74
2022/11/12 08:11:36;;;;;;;18.40;11.63;;;;;;;;;;5129669;27;20048;-74
2022/11/12 08:14:08;;;;;;;23.00;12.60;;;;;;;;;;5117381;27;20079;-74
2022/11/12 08:16:38;;;;;;;23.63;12.13;;;;;;;;;;5112761;27;20051;-74
2022/11/12 08:19:05;;;;;;;21.73;12.43;;;;;;;;;;5132049;27;20055;-75
2022/11/12 08:21:33;;;;;;;23.45;12.10;;;;;;;;;;5134709;27;20075;-75
2022/11/12 08:24:03;;;;;;;23.80;11.88;;;;;;;;;;5115114;27;20051;-75
2022/11/12 08:26:34;;;;;;;20.15;11.98;;;;;;;;;;5117156;27;20138;-75
2022/11/12 08:29:04;;;;;;;22.75;13.32;;;;;;;;;;5120643;27;20110;-75
2022/11/12 08:31:35;;;;;;;27.40;14.02;;;;;;;;;;5136452;27;20060;-75
2022/11/12 08:34:10;;;;;;;27.65;15.13;;;;;;;;;;5119546;27;20043;-76
2022/11/12 08:36:39;;;;;;;27.45;14.80;;;;;;;;;;5140395;27;20492;-75
2022/11/12 08:39:07;;;;;;;30.98;14.77;;;;;;;;;;5137059;27;20082;-76
2022/11/12 08:41:35;;;;;;;23.15;14.13;;;;;;;;;;5137677;27;20054;-75
2022/11/12 08:44:02;;;;;;;28.85;15.38;;;;;;;;;;5142501;27;20056;-75
2022/11/12 08:46:34;;;;;;;28.08;15.50;;;;;;;;;;5134765;27;20083;-75
2022/11/12 08:49:02;;;;;;;22.52;15.23;;;;;;;;;;5137237;27;20100;-75
2022/11/12 08:51:29;;;;;;;25.23;14.95;;;;;;;;;;5125032;27;20043;-72
2022/11/12 08:53:56;;;;;;;26.02;14.57;;;;;;;;;;5138278;27;20167;-72
2022/11/12 08:56:23;;;;;;;25.00;13.93;;;;;;;;;;5140628;27;20048;-73
2022/11/12 08:58:53;;;;;;;23.90;13.95;;;;;;;;;;5136644;27;20098;-73
2022/11/12 09:01:23;;;;;;;24.77;12.27;;;;;;;;;;5139166;27;20094;-73
2022/11/12 09:03:51;;;;;;;22.08;12.40;;;;;;;;;;5143604;27;20076;-73
2022/11/12 09:06:18;;;;;;;23.77;12.32;;;;;;;;;;5142165;27;20047;-73
2022/11/12 09:08:45;;;;;;;18.58;11.68;;;;;;;;;;5144728;27;20051;-73
2022/11/12 09:11:13;;;;;;;19.45;10.98;;;;;;;;;;5144108;27;20044;-73
2022/11/12 09:13:40;;;;;;;17.90;10.98;;;;;;;;;;5138357;27;20043;-73
2022/11/12 09:16:09;;;;;;;18.58;11.18;;;;;;;;;;5143296;27;20557;-73
2022/11/12 09:18:39;;;;;;;20.35;11.13;;;;;;;;;;5140614;27;20047;-75
2022/11/12 09:21:07;;;;;;;14.65;9.98;;;;;;;;;;5144319;27;20047;-75
2022/11/12 09:23:35;;;;;;;17.02;10.82;;;;;;;;;;5140214;27;20803;-76
2022/11/12 09:26:02;;;;;;;14.52;9.18;;;;;;;;;;5141405;27;20047;-73
2022/11/12 09:28:30;;;;;;;14.93;9.90;;;;;;;;;;5138343;27;20506;-73
2022/11/12 09:30:58;;;;;;;15.88;9.93;;;;;;;;;;5140192;27;20047;-73
2022/11/12 09:33:27;;;;;;;16.88;9.57;;;;;;;;;;5137771;27;20054;-74
2022/11/12 09:35:54;;;;;;;14.60;8.55;;;;;;;;;;5121426;27;20051;-73
2022/11/12 09:38:22;;;;;;;13.05;8.95;;;;;;;;;;5141597;27;20058;-73
2022/11/12 09:40:53;;;;;;;14.00;8.40;;;;;;;;;;5141160;27;20051;-73
2022/11/12 09:43:22;;;;;;;12.48;8.15;;;;;;;;;;5139972;27;20044;-73
2022/11/12 09:45:51;;;;;;;14.60;9.38;;;;;;;;;;5142856;27;20048;-73
2022/11/12 09:48:43;;;;;;;13.05;8.45;;;;;;;;;;5140521;27;20051;-73
2022/11/12 09:51:40;;;;;;;13.15;8.60;;;;;;;;;;5140920;27;20674;-73
2022/11/12 09:54:12;;;;;;;11.50;7.88;;;;;;;;;;5075112;28;20141;-73
2022/11/12 09:56:40;;;;;;;14.68;8.50;;;;;;;;;;5080923;28;20036;-73
2022/11/12 09:59:12;;;;;;;15.35;8.45;;;;;;;;;;5081515;28;20072;-74
2022/11/12 10:01:44;;;;;;;11.13;8.23;;;;;;;;;;5059075;28;20049;-73
2022/11/12 10:04:40;;;;;;;12.53;7.63;;;;;;;;;;5061310;28;20503;-73
2022/11/12 10:07:20;;;;;;;12.52;7.55;;;;;;;;;;5066739;28;20268;-73
2022/11/12 10:10:08;;;;;;;11.43;7.15;;;;;;;;;;5073839;28;20056;-73
2022/11/12 10:12:42;;;;;;;11.10;7.47;;;;;;;;;;5077356;28;20771;-73
2022/11/12 10:18:04;;;;;;;9.68;7.07;;;;;;;;;;5081444;28;20479;-73
2022/11/12 10:20:37;;;;;;;14.35;7.45;;;;;;;;;;5063469;28;20484;-73
2022/11/12 10:23:14;;;;;;;11.15;7.25;;;;;;;;;;5075933;28;20092;-73
2022/11/12 10:25:43;;;;;;;14.27;8.00;;;;;;;;;;5055363;28;20053;-73
2022/11/12 10:28:22;;;;;;;14.10;7.18;;;;;;;;;;5081132;28;20566;-73
2022/11/12 10:30:53;;;;;;;14.25;8.50;;;;;;;;;;5099790;27;20063;-73
2022/11/12 10:33:24;;;;;;;18.40;10.05;;;;;;;;;;5103524;27;20056;-73
2022/11/12 10:35:52;;;;;;;15.27;8.70;;;;;;;;;;5112938;27;20964;-73
2022/11/12 10:38:24;;;;;;;12.73;8.00;;;;;;;;;;5122147;27;20044;-73
2022/11/12 10:40:52;;;;;;;13.18;7.60;;;;;;;;;;5118147;27;20144;-73
2022/11/12 10:43:21;;;;;;;12.98;7.70;;;;;;;;;;5120941;27;20044;-73
2022/11/12 10:45:49;;;;;;;14.15;7.32;;;;;;;;;;5115460;27;20059;-74
2022/11/12 10:48:29;;;;;;;10.67;7.50;;;;;;;;;;5120589;27;20140;-73
2022/11/12 10:50:57;;;;;;;11.73;7.18;;;;;;;;;;5120647;27;20095;-73
2022/11/12 10:53:35;;;;;;;10.45;7.13;;;;;;;;;;5122720;27;20052;-73
2022/11/12 10:56:22;;;;;;;11.75;6.55;;;;;;;;;;5115272;27;20044;-74
2022/11/12 10:59:08;;;;;;;10.75;6.68;;;;;;;;;;5113157;27;20808;-74
2022/11/12 11:01:36;;;;;;;13.55;7.28;;;;;;;;;;5123200;27;20052;-74
2022/11/12 11:04:21;;;;;;;10.88;7.18;;;;;;;;;;5095308;27;20078;-74
2022/11/12 11:06:57;;;;;;;10.13;6.95;;;;;;;;;;5097325;27;20052;-73
2022/11/12 11:09:25;;;;;;;9.45;6.65;;;;;;;;;;5121376;27;20059;-73
2022/11/12 11:11:53;;;;;;;11.15;7.82;;;;;;;;;;5120769;27;20044;-74
2022/11/12 11:14:34;;;;;;;10.13;6.22;;;;;;;;;;5119568;27;20050;-74
2022/11/12 11:17:07;;;;;;;12.07;7.45;;;;;;;;;;5121417;27;20797;-74
2022/11/12 11:19:39;;;;;;;10.10;7.25;;;;;;;;;;5130687;27;20513;-74
2022/11/12 11:22:29;;;;;;;16.63;5.93;;;;;;;;;;5139988;27;20052;-74
2022/11/12 11:25:06;;;;;;;11.20;6.53;;;;;;;;;;5110336;27;20053;-73
2022/11/12 11:27:56;;;;;;;10.57;6.22;;;;;;;;;;5132825;27;20054;-74
2022/11/12 11:30:23;;;;;;;8.45;6.18;;;;;;;;;;5041267;28;20349;-74
2022/11/12 11:33:05;;;;;;;8.68;5.97;;;;;;;;;;5042487;28;20578;-74
2022/11/12 11:35:38;;;;;;;9.48;5.55;;;;;;;;;;5046925;28;20057;-73
2022/11/12 11:38:14;;;;;;;7.97;5.53;;;;;;;;;;5023959;28;20784;-74
2022/11/12 11:40:46;;;;;;;10.55;5.38;;;;;;;;;;5047452;28;20054;-74
2022/11/12 11:43:23;;;;;;;7.60;5.53;;;;;;;;;;5042092;28;20054;-74
2022/11/12 11:45:50;;;;;;;12.25;5.65;;;;;;;;;;5045904;28;20061;-74
2022/11/12 11:48:18;;;;;;;8.95;5.07;;;;;;;;;;5041459;28;20536;-74
2022/11/12 11:51:06;;;;;;;7.38;4.75;;;;;;;;;;5043430;28;20045;-74
2022/11/12 11:53:33;;;;;;;10.00;5.10;;;;;;;;;;5043752;28;20050;-74
2022/11/12 11:56:05;;;;;;;7.45;4.43;;;;;;;;;;5046203;28;20049;-74
2022/11/12 11:58:35;;;;;;;10.35;4.60;;;;;;;;;;5041648;28;20127;-74
2022/11/12 12:01:14;;;;;;;6.90;4.88;;;;;;;;;;5041583;28;20058;-74
2022/11/12 12:03:41;;;;;;;11.60;5.38;;;;;;;;;;5043367;28;20080;-74
2022/11/12 12:06:26;;;;;;;6.40;4.47;;;;;;;;;;5048744;28;20045;-74
2022/11/12 12:09:00;;;;;;;8.85;4.82;;;;;;;;;;5132054;27;20044;-74
2022/11/12 12:11:40;;;;;;;6.50;4.38;;;;;;;;;;5131725;27;20051;-74
2022/11/12 12:14:13;;;;;;;7.60;4.45;;;;;;;;;;5133843;27;20063;-74
2022/11/12 12:16:51;;;;;;;9.32;4.50;;;;;;;;;;5134928;27;20051;-74
2022/11/12 12:19:38;;;;;;;10.80;4.65;;;;;;;;;;5138903;27;20063;-73
2022/11/12 12:22:09;;;;;;;11.32;5.18;;;;;;;;;;5116984;27;20615;-74
2022/11/12 12:24:45;;;;;;;9.95;4.60;;;;;;;;;;5139084;27;20075;-74
2022/11/12 12:27:15;;;;;;;7.70;4.82;;;;;;;;;;5115973;27;20059;-74
2022/11/12 12:29:48;;;;;;;9.88;5.28;;;;;;;;;;5142280;27;20050;-74
2022/11/12 12:32:18;;;;;;;6.55;4.43;;;;;;;;;;5119299;27;20507;-74
2022/11/12 12:35:05;;;;;;;7.90;4.40;;;;;;;;;;5138330;27;20052;-74
2022/11/12 12:37:35;;;;;;;9.23;4.47;;;;;;;;;;5125928;27;20150;-74
2022/11/12 12:40:14;;;;;;;7.32;4.65;;;;;;;;;;5142900;27;20055;-74
2022/11/12 12:42:41;;;;;;;7.88;4.90;;;;;;;;;;5116749;27;20051;-74
2022/11/12 12:45:23;;;;;;;7.85;4.70;;;;;;;;;;5140367;27;20055;-74
2022/11/12 12:47:51;;;;;;;8.57;4.50;;;;;;;;;;5147900;27;20047;-74
2022/11/12 12:50:20;;;;;;;6.10;4.40;;;;;;;;;;5144326;27;20055;-74
2022/11/12 12:53:00;;;;;;;8.32;4.38;;;;;;;;;;5125407;27;20047;-74
2022/11/12 12:55:40;;;;;;;7.10;4.50;;;;;;;;;;5143670;27;20048;-74
2022/11/12 12:58:26;;;;;;;8.75;4.43;;;;;;;;;;5143493;27;20580;-74
2022/11/12 13:00:56;;;;;;;7.10;4.45;;;;;;;;;;5139083;27;20517;-74
2022/11/12 13:03:42;;;;;;;7.20;4.70;;;;;;;;;;5145197;27;20153;-74
2022/11/12 13:06:22;;;;;;;7.43;3.83;;;;;;;;;;5141859;27;20052;-74
2022/11/12 13:08:54;;;;;;;10.18;4.00;;;;;;;;;;5134547;27;20048;-74
2022/11/12 13:14:36;;;;;;;6.82;3.72;;;;;;;;;;5141509;27;20055;-74
2022/11/12 13:17:10;;;;;;;7.57;4.28;;;;;;;;;;5138661;27;20052;-76
2022/11/12 13:19:39;;;;;;;6.15;4.15;;;;;;;;;;5142110;27;20146;-74
2022/11/12 13:22:18;;;;;;;10.73;4.60;;;;;;;;;;5133479;27;20056;-74
2022/11/12 13:25:04;;;;;;;6.60;4.43;;;;;;;;;;5125380;27;20057;-73
2022/11/12 13:27:43;;;;;;;10.02;4.70;;;;;;;;;;5140597;27;20055;-73
2022/11/12 13:30:16;;;;;;;9.00;4.72;;;;;;;;;;5140084;27;20047;-74
2022/11/12 13:32:53;;;;;;;6.60;4.03;;;;;;;;;;5144884;27;20059;-73
2022/11/12 13:35:28;;;;;;;7.28;4.93;;;;;;;;;;5142059;27;20051;-74
2022/11/12 13:37:59;;;;;;;10.82;4.38;;;;;;;;;;5143332;27;20196;-74
2022/11/12 13:40:30;;;;;;;6.78;4.10;;;;;;;;;;5133050;27;20484;-74
2022/11/12 13:43:06;;;;;;;6.85;4.28;;;;;;;;;;5137001;27;20404;-74
2022/11/12 13:45:38;;;;;;;8.82;4.88;;;;;;;;;;5137566;27;20051;-74
2022/11/12 13:48:06;;;;;;;7.32;4.53;;;;;;;;;;5138023;27;20499;-74
2022/11/12 13:50:34;;;;;;;7.70;4.65;;;;;;;;;;5138173;27;20059;-74
2022/11/12 13:53:10;;;;;;;8.10;4.65;;;;;;;;;;5134964;27;20083;-74
2022/11/12 13:55:46;;;;;;;9.68;4.90;;;;;;;;;;5134653;27;20048;-73
2022/11/12 13:58:27;;;;;;;9.00;5.15;;;;;;;;;;5116112;27;20051;-74
2022/11/12 14:00:56;;;;;;;8.48;5.15;;;;;;;;;;5136242;27;20051;-73
2022/11/12 14:03:25;;;;;;;14.10;5.90;;;;;;;;;;5137186;27;20050;-74
2022/11/12 14:05:55;;;;;;;9.98;5.68;;;;;;;;;;5137500;27;20056;-73
2022/11/12 14:08:35;;;;;;;11.23;5.47;;;;;;;;;;5134063;27;20621;-74
2022/11/12 14:11:23;;;;;;;10.57;6.07;;;;;;;;;;5123923;27;20085;-74
2022/11/12 14:14:09;;;;;;;10.35;6.10;;;;;;;;;;5137118;27;20044;-74
2022/11/12 14:16:41;;;;;;;9.30;6.40;;;;;;;;;;5137959;27;20837;-75
2022/11/12 14:19:17;;;;;;;12.88;7.45;;;;;;;;;;5140723;27;20062;-74
2022/11/12 14:21:57;;;;;;;14.73;7.93;;;;;;;;;;5117958;27;20051;-74
2022/11/12 14:24:24;;;;;;;11.57;7.78;;;;;;;;;;5143116;27;20055;-74
2022/11/12 14:26:52;;;;;;;12.35;7.22;;;;;;;;;;5139234;27;20051;-74
2022/11/12 14:29:19;;;;;;;13.07;7.20;;;;;;;;;;5134485;27;20096;-73
2022/11/12 14:31:58;;;;;;;14.60;7.25;;;;;;;;;;5120705;27;20078;-74
2022/11/12 14:34:28;;;;;;;11.10;6.70;;;;;;;;;;5136652;27;20062;-74
2022/11/12 14:36:56;;;;;;;11.30;6.90;;;;;;;;;;5135858;27;20763;-74
2022/11/12 14:39:25;;;;;;;9.38;5.97;;;;;;;;;;5126795;27;21260;-74
2022/11/12 14:41:53;;;;;;;8.20;5.30;;;;;;;;;;5133070;27;20052;-74
2022/11/12 14:44:23;;;;;;;7.95;5.20;;;;;;;;;;5143115;27;20048;-73
2022/11/12 14:46:52;;;;;;;9.77;5.03;;;;;;;;;;5138367;27;20077;-74
2022/11/12 14:49:23;;;;;;;7.10;4.53;;;;;;;;;;5128837;27;20543;-74
2022/11/12 14:51:53;;;;;;;7.82;4.40;;;;;;;;;;5140746;27;20039;-74
2022/11/12 14:54:30;;;;;;;10.00;4.28;;;;;;;;;;5124136;27;20558;-74
2022/11/12 14:56:59;;;;;;;9.07;4.28;;;;;;;;;;5118586;27;20051;-74
2022/11/12 14:59:27;;;;;;;7.07;4.28;;;;;;;;;;5138751;27;20048;-74
2022/11/12 15:02:02;;;;;;;8.52;5.45;;;;;;;;;;5129034;27;20047;-73
2022/11/12 15:04:58;;;;;;;8.27;4.53;;;;;;;;;;5137735;27;20055;-74
2022/11/12 15:07:27;;;;;;;10.88;5.07;;;;;;;;;;5143687;27;20051;-74
2022/11/12 15:09:55;;;;;;;10.05;5.10;;;;;;;;;;5121095;27;20058;-74
2022/11/12 15:12:28;;;;;;;10.60;5.13;;;;;;;;;;5140725;27;20094;-74
2022/11/12 15:15:14;;;;;;;8.02;4.78;;;;;;;;;;5141340;27;20052;-74